sensor_id;sensor_type;location;lat;lon;timestamp;temperature;humidity
52471;DHT22;38382;53.160;7.026;2023-11-22T00:00:54;1.60;99.90
52471;DHT22;38382;53.160;7.026;2023-11-22T00:03:20;1.50;99.90
52471;DHT22;38382;53.160;7.026;2023-11-22T00:05:46;1.50;99.90
52471;DHT22;38382;53.160;7.026;2023-11-22T00:08:12;1.50;99.90
52471;DHT22;38382;53.160;7.026;2023-11-22T00:10:38;1.50;99.90
52471;DHT22;38382;53.160;7.026;2023-11-22T00:13:04;1.50;99.90
52471;DHT22;38382;53.160;7.026;2023-11-22T00:15:30;1.90;99.90
52471;DHT22;38382;53.160;7.026;2023-11-22T00:17:56;1.50;99.90
52471;DHT22;38382;53.160;7.026;2023-11-22T00:20:29;1.40;99.90
52471;DHT22;38382;53.160;7.026;2023-11-22T00:22:55;2.20;99.90
52471;DHT22;38382;53.160;7.026;2023-11-22T00:25:21;1.40;99.90
52471;DHT22;38382;53.160;7.026;2023-11-22T00:27:47;1.30;99.90
52471;DHT22;38382;53.160;7.026;2023-11-22T00:30:13;2.50;99.90
52471;DHT22;38382;53.160;7.026;2023-11-22T00:32:39;1.30;99.90
52471;DHT22;38382;53.160;7.026;2023-11-22T00:35:06;1.30;99.90
52471;DHT22;38382;53.160;7.026;2023-11-22T00:37:33;1.30;99.90
52471;DHT22;38382;53.160;7.026;2023-11-22T00:40:01;1.30;99.90
52471;DHT22;38382;53.160;7.026;2023-11-22T00:42:31;2.10;99.90
52471;DHT22;38382;53.160;7.026;2023-11-22T00:44:57;2.00;99.90
52471;DHT22;38382;53.160;7.026;2023-11-22T00:47:23;2.30;99.90
52471;DHT22;38382;53.160;7.026;2023-11-22T00:49:48;1.20;99.90
52471;DHT22;38382;53.160;7.026;2023-11-22T00:52:14;1.20;99.90
52471;DHT22;38382;53.160;7.026;2023-11-22T00:54:40;1.20;99.90
52471;DHT22;38382;53.160;7.026;2023-11-22T00:57:06;1.20;99.90
52471;DHT22;38382;53.160;7.026;2023-11-22T00:59:32;1.30;99.90
52471;DHT22;38382;53.160;7.026;2023-11-22T01:01:58;1.40;99.90
52471;DHT22;38382;53.160;7.026;2023-11-22T01:04:24;1.10;99.90
52471;DHT22;38382;53.160;7.026;2023-11-22T01:06:49;1.20;99.90
52471;DHT22;38382;53.160;7.026;2023-11-22T01:09:15;1.10;99.90
52471;DHT22;38382;53.160;7.026;2023-11-22T01:11:41;1.10;99.90
52471;DHT22;38382;53.160;7.026;2023-11-22T01:14:09;1.00;99.90
52471;DHT22;38382;53.160;7.026;2023-11-22T01:16:34;2.00;99.90
52471;DHT22;38382;53.160;7.026;2023-11-22T01:19:02;1.00;99.90
52471;DHT22;38382;53.160;7.026;2023-11-22T01:21:28;1.00;99.90
52471;DHT22;38382;53.160;7.026;2023-11-22T01:23:53;0.90;99.90
52471;DHT22;38382;53.160;7.026;2023-11-22T01:26:19;2.40;99.90
52471;DHT22;38382;53.160;7.026;2023-11-22T01:28:45;1.70;99.90
52471;DHT22;38382;53.160;7.026;2023-11-22T01:31:12;0.90;99.90
52471;DHT22;38382;53.160;7.026;2023-11-22T01:33:38;1.20;99.90
52471;DHT22;38382;53.160;7.026;2023-11-22T01:36:04;0.80;99.90
52471;DHT22;38382;53.160;7.026;2023-11-22T01:38:30;0.80;99.90
52471;DHT22;38382;53.160;7.026;2023-11-22T01:40:56;1.70;99.90
52471;DHT22;38382;53.160;7.026;2023-11-22T01:43:22;0.80;99.90
52471;DHT22;38382;53.160;7.026;2023-11-22T01:45:50;0.80;99.90
52471;DHT22;38382;53.160;7.026;2023-11-22T01:48:16;1.00;99.90
52471;DHT22;38382;53.160;7.026;2023-11-22T01:50:45;1.50;99.90
52471;DHT22;38382;53.160;7.026;2023-11-22T01:53:12;2.30;99.90
52471;DHT22;38382;53.160;7.026;2023-11-22T01:55:39;1.20;99.90
52471;DHT22;38382;53.160;7.026;2023-11-22T01:58:06;1.90;99.90
52471;DHT22;38382;53.160;7.026;2023-11-22T02:00:36;0.90;99.90
52471;DHT22;38382;53.160;7.026;2023-11-22T02:03:07;0.80;99.90
52471;DHT22;38382;53.160;7.026;2023-11-22T02:05:33;1.40;99.90
52471;DHT22;38382;53.160;7.026;2023-11-22T02:07:59;0.80;99.90
52471;DHT22;38382;53.160;7.026;2023-11-22T02:10:24;2.10;99.90
52471;DHT22;38382;53.160;7.026;2023-11-22T02:12:50;0.70;99.90
52471;DHT22;38382;53.160;7.026;2023-11-22T02:15:16;1.70;99.90
52471;DHT22;38382;53.160;7.026;2023-11-22T02:17:41;0.80;99.90
52471;DHT22;38382;53.160;7.026;2023-11-22T02:20:07;1.00;99.90
52471;DHT22;38382;53.160;7.026;2023-11-22T02:22:44;0.60;99.90
52471;DHT22;38382;53.160;7.026;2023-11-22T02:25:09;0.70;99.90
52471;DHT22;38382;53.160;7.026;2023-11-22T02:27:36;2.00;99.90
52471;DHT22;38382;53.160;7.026;2023-11-22T02:30:03;1.10;99.90
52471;DHT22;38382;53.160;7.026;2023-11-22T02:32:31;0.50;99.90
52471;DHT22;38382;53.160;7.026;2023-11-22T02:34:57;0.50;99.90
52471;DHT22;38382;53.160;7.026;2023-11-22T02:37:23;0.80;99.90
52471;DHT22;38382;53.160;7.026;2023-11-22T02:40:06;1.90;99.90
52471;DHT22;38382;53.160;7.026;2023-11-22T02:42:35;0.50;99.90
52471;DHT22;38382;53.160;7.026;2023-11-22T02:45:01;1.20;99.90
52471;DHT22;38382;53.160;7.026;2023-11-22T02:47:27;0.50;99.90
52471;DHT22;38382;53.160;7.026;2023-11-22T02:49:52;1.70;99.90
52471;DHT22;38382;53.160;7.026;2023-11-22T02:52:20;1.80;99.90
52471;DHT22;38382;53.160;7.026;2023-11-22T02:54:47;0.90;99.90
52471;DHT22;38382;53.160;7.026;2023-11-22T02:57:13;0.30;99.90
52471;DHT22;38382;53.160;7.026;2023-11-22T02:59:45;1.70;99.90
52471;DHT22;38382;53.160;7.026;2023-11-22T03:02:10;0.40;99.90
52471;DHT22;38382;53.160;7.026;2023-11-22T03:04:37;0.40;99.90
52471;DHT22;38382;53.160;7.026;2023-11-22T03:07:03;1.60;99.90
52471;DHT22;38382;53.160;7.026;2023-11-22T03:09:29;0.30;99.90
52471;DHT22;38382;53.160;7.026;2023-11-22T03:11:55;0.30;99.90
52471;DHT22;38382;53.160;7.026;2023-11-22T03:14:21;0.30;99.90
52471;DHT22;38382;53.160;7.026;2023-11-22T03:16:47;1.20;99.90
52471;DHT22;38382;53.160;7.026;2023-11-22T03:19:14;0.50;99.90
52471;DHT22;38382;53.160;7.026;2023-11-22T03:21:40;1.60;99.90
52471;DHT22;38382;53.160;7.026;2023-11-22T03:24:09;0.50;99.90
52471;DHT22;38382;53.160;7.026;2023-11-22T03:26:35;1.50;99.90
52471;DHT22;38382;53.160;7.026;2023-11-22T03:29:01;0.20;99.90
52471;DHT22;38382;53.160;7.026;2023-11-22T03:31:27;0.20;99.90
52471;DHT22;38382;53.160;7.026;2023-11-22T03:33:54;0.20;99.90
52471;DHT22;38382;53.160;7.026;2023-11-22T03:36:21;1.10;99.90
52471;DHT22;38382;53.160;7.026;2023-11-22T03:38:48;0.20;99.90
52471;DHT22;38382;53.160;7.026;2023-11-22T03:41:14;1.60;99.90
52471;DHT22;38382;53.160;7.026;2023-11-22T03:43:40;1.80;99.90
52471;DHT22;38382;53.160;7.026;2023-11-22T03:46:06;1.80;99.90
52471;DHT22;38382;53.160;7.026;2023-11-22T03:48:32;1.70;99.90
52471;DHT22;38382;53.160;7.026;2023-11-22T03:50:58;0.20;99.90
52471;DHT22;38382;53.160;7.026;2023-11-22T03:53:23;1.40;99.90
52471;DHT22;38382;53.160;7.026;2023-11-22T03:55:49;0.40;99.90
52471;DHT22;38382;53.160;7.026;2023-11-22T03:58:16;1.40;99.90
52471;DHT22;38382;53.160;7.026;2023-11-22T04:00:41;0.20;99.90
52471;DHT22;38382;53.160;7.026;2023-11-22T04:03:07;1.10;99.90
52471;DHT22;38382;53.160;7.026;2023-11-22T04:05:33;1.70;99.90
52471;DHT22;38382;53.160;7.026;2023-11-22T04:07:58;1.50;99.90
52471;DHT22;38382;53.160;7.026;2023-11-22T04:10:24;0.20;99.90
52471;DHT22;38382;53.160;7.026;2023-11-22T04:12:50;0.70;99.90
52471;DHT22;38382;53.160;7.026;2023-11-22T04:15:16;0.20;99.90
52471;DHT22;38382;53.160;7.026;2023-11-22T04:17:42;1.40;99.90
52471;DHT22;38382;53.160;7.026;2023-11-22T04:20:08;0.20;99.90
52471;DHT22;38382;53.160;7.026;2023-11-22T04:22:36;0.20;99.90
52471;DHT22;38382;53.160;7.026;2023-11-22T04:25:03;1.40;99.90
52471;DHT22;38382;53.160;7.026;2023-11-22T04:27:30;0.20;99.90
52471;DHT22;38382;53.160;7.026;2023-11-22T04:29:55;0.10;99.90
52471;DHT22;38382;53.160;7.026;2023-11-22T04:32:21;1.30;99.90
52471;DHT22;38382;53.160;7.026;2023-11-22T04:34:47;0.80;99.90
52471;DHT22;38382;53.160;7.026;2023-11-22T04:37:13;0.30;99.90
52471;DHT22;38382;53.160;7.026;2023-11-22T04:39:39;0.00;99.90
52471;DHT22;38382;53.160;7.026;2023-11-22T04:42:05;0.10;99.90
52471;DHT22;38382;53.160;7.026;2023-11-22T04:44:31;0.00;99.90
52471;DHT22;38382;53.160;7.026;2023-11-22T04:46:59;0.60;99.90
52471;DHT22;38382;53.160;7.026;2023-11-22T04:49:26;1.40;99.90
52471;DHT22;38382;53.160;7.026;2023-11-22T04:51:51;1.20;99.90
52471;DHT22;38382;53.160;7.026;2023-11-22T04:54:17;0.00;99.90
52471;DHT22;38382;53.160;7.026;2023-11-22T04:56:43;-0.10;99.90
52471;DHT22;38382;53.160;7.026;2023-11-22T04:59:09;-0.10;99.90
52471;DHT22;38382;53.160;7.026;2023-11-22T05:01:35;0.40;99.90
52471;DHT22;38382;53.160;7.026;2023-11-22T05:04:01;0.70;99.90
52471;DHT22;38382;53.160;7.026;2023-11-22T05:06:27;0.10;99.90
52471;DHT22;38382;53.160;7.026;2023-11-22T05:08:54;1.10;99.90
52471;DHT22;38382;53.160;7.026;2023-11-22T05:11:21;0.00;99.90
52471;DHT22;38382;53.160;7.026;2023-11-22T05:13:46;0.00;99.90
52471;DHT22;38382;53.160;7.026;2023-11-22T05:16:12;1.10;99.90
52471;DHT22;38382;53.160;7.026;2023-11-22T05:18:38;0.40;99.90
52471;DHT22;38382;53.160;7.026;2023-11-22T05:21:04;1.10;99.90
52471;DHT22;38382;53.160;7.026;2023-11-22T05:23:30;0.80;99.90
52471;DHT22;38382;53.160;7.026;2023-11-22T05:25:59;0.00;99.90
52471;DHT22;38382;53.160;7.026;2023-11-22T05:28:25;1.10;99.90
52471;DHT22;38382;53.160;7.026;2023-11-22T05:30:51;0.70;99.90
52471;DHT22;38382;53.160;7.026;2023-11-22T05:33:17;-0.10;99.90
52471;DHT22;38382;53.160;7.026;2023-11-22T05:35:43;0.00;99.90
52471;DHT22;38382;53.160;7.026;2023-11-22T05:38:08;0.00;99.90
52471;DHT22;38382;53.160;7.026;2023-11-22T05:40:35;1.50;99.90
52471;DHT22;38382;53.160;7.026;2023-11-22T05:43:01;-0.10;99.90
52471;DHT22;38382;53.160;7.026;2023-11-22T05:45:27;-0.10;99.90
52471;DHT22;38382;53.160;7.026;2023-11-22T05:47:52;1.30;99.90
52471;DHT22;38382;53.160;7.026;2023-11-22T05:50:18;1.40;99.90
52471;DHT22;38382;53.160;7.026;2023-11-22T05:52:44;0.80;99.90
52471;DHT22;38382;53.160;7.026;2023-11-22T05:55:10;1.10;99.90
52471;DHT22;38382;53.160;7.026;2023-11-22T05:57:42;0.50;99.90
52471;DHT22;38382;53.160;7.026;2023-11-22T06:00:08;-0.10;99.90
52471;DHT22;38382;53.160;7.026;2023-11-22T06:02:34;-0.10;99.90
52471;DHT22;38382;53.160;7.026;2023-11-22T06:05:02;-0.20;99.90
52471;DHT22;38382;53.160;7.026;2023-11-22T06:07:27;0.00;99.90
52471;DHT22;38382;53.160;7.026;2023-11-22T06:09:53;-0.20;99.90
52471;DHT22;38382;53.160;7.026;2023-11-22T06:12:19;-0.20;99.90
52471;DHT22;38382;53.160;7.026;2023-11-22T06:14:46;1.30;99.90
52471;DHT22;38382;53.160;7.026;2023-11-22T06:17:12;0.50;99.90
52471;DHT22;38382;53.160;7.026;2023-11-22T06:19:39;-0.10;99.90
52471;DHT22;38382;53.160;7.026;2023-11-22T06:22:07;1.10;99.90
52471;DHT22;38382;53.160;7.026;2023-11-22T06:24:33;-0.10;99.90
52471;DHT22;38382;53.160;7.026;2023-11-22T06:27:02;-0.10;99.90
52471;DHT22;38382;53.160;7.026;2023-11-22T06:29:27;-0.10;99.90
52471;DHT22;38382;53.160;7.026;2023-11-22T06:31:54;0.90;99.90
52471;DHT22;38382;53.160;7.026;2023-11-22T06:34:20;0.10;99.90
52471;DHT22;38382;53.160;7.026;2023-11-22T06:36:46;0.80;99.90
52471;DHT22;38382;53.160;7.026;2023-11-22T06:39:11;0.70;99.90
52471;DHT22;38382;53.160;7.026;2023-11-22T06:41:41;1.70;99.90
52471;DHT22;38382;53.160;7.026;2023-11-22T06:44:07;0.00;99.90
52471;DHT22;38382;53.160;7.026;2023-11-22T06:46:32;1.20;99.90
52471;DHT22;38382;53.160;7.026;2023-11-22T06:48:58;0.10;99.90
52471;DHT22;38382;53.160;7.026;2023-11-22T06:51:24;0.60;99.90
52471;DHT22;38382;53.160;7.026;2023-11-22T06:53:50;0.40;99.90
52471;DHT22;38382;53.160;7.026;2023-11-22T06:56:17;1.20;99.90
52471;DHT22;38382;53.160;7.026;2023-11-22T06:58:43;0.10;99.90
52471;DHT22;38382;53.160;7.026;2023-11-22T07:01:09;0.20;99.90
52471;DHT22;38382;53.160;7.026;2023-11-22T07:03:36;0.10;99.90
52471;DHT22;38382;53.160;7.026;2023-11-22T07:06:03;0.10;99.90
52471;DHT22;38382;53.160;7.026;2023-11-22T07:08:30;0.20;99.90
52471;DHT22;38382;53.160;7.026;2023-11-22T07:10:56;1.10;99.90
52471;DHT22;38382;53.160;7.026;2023-11-22T07:13:22;0.60;99.90
52471;DHT22;38382;53.160;7.026;2023-11-22T07:15:49;0.20;99.90
52471;DHT22;38382;53.160;7.026;2023-11-22T07:18:16;0.30;99.90
52471;DHT22;38382;53.160;7.026;2023-11-22T07:20:42;0.40;99.90
52471;DHT22;38382;53.160;7.026;2023-11-22T07:23:08;1.60;99.90
52471;DHT22;38382;53.160;7.026;2023-11-22T07:25:39;1.80;99.90
52471;DHT22;38382;53.160;7.026;2023-11-22T07:28:05;1.80;99.90
52471;DHT22;38382;53.160;7.026;2023-11-22T07:30:30;1.10;99.90
52471;DHT22;38382;53.160;7.026;2023-11-22T07:32:59;0.50;99.90
52471;DHT22;38382;53.160;7.026;2023-11-22T07:35:24;1.10;99.90
52471;DHT22;38382;53.160;7.026;2023-11-22T07:37:53;2.00;99.90
52471;DHT22;38382;53.160;7.026;2023-11-22T07:40:20;0.70;99.90
52471;DHT22;38382;53.160;7.026;2023-11-22T07:42:47;1.60;99.90
52471;DHT22;38382;53.160;7.026;2023-11-22T07:45:13;0.80;99.90
52471;DHT22;38382;53.160;7.026;2023-11-22T07:47:39;0.90;99.90
52471;DHT22;38382;53.160;7.026;2023-11-22T07:50:08;1.30;99.90
52471;DHT22;38382;53.160;7.026;2023-11-22T07:52:34;1.00;99.90
52471;DHT22;38382;53.160;7.026;2023-11-22T07:54:59;2.60;99.90
52471;DHT22;38382;53.160;7.026;2023-11-22T07:57:25;1.10;99.90
52471;DHT22;38382;53.160;7.026;2023-11-22T07:59:51;2.00;99.90
52471;DHT22;38382;53.160;7.026;2023-11-22T08:02:21;2.30;99.90
52471;DHT22;38382;53.160;7.026;2023-11-22T08:04:47;2.50;99.90
52471;DHT22;38382;53.160;7.026;2023-11-22T08:07:14;2.20;99.90
52471;DHT22;38382;53.160;7.026;2023-11-22T08:09:43;1.50;99.90
52471;DHT22;38382;53.160;7.026;2023-11-22T08:12:09;1.30;99.90
52471;DHT22;38382;53.160;7.026;2023-11-22T08:14:39;2.10;99.90
52471;DHT22;38382;53.160;7.026;2023-11-22T08:17:06;1.40;99.90
52471;DHT22;38382;53.160;7.026;2023-11-22T08:19:32;1.40;99.90
52471;DHT22;38382;53.160;7.026;2023-11-22T08:21:58;3.00;99.90
52471;DHT22;38382;53.160;7.026;2023-11-22T08:24:24;1.50;99.90
52471;DHT22;38382;53.160;7.026;2023-11-22T08:26:50;1.50;99.90
52471;DHT22;38382;53.160;7.026;2023-11-22T08:29:16;1.90;99.90
52471;DHT22;38382;53.160;7.026;2023-11-22T08:31:41;1.60;99.90
52471;DHT22;38382;53.160;7.026;2023-11-22T08:34:07;2.10;99.90
52471;DHT22;38382;53.160;7.026;2023-11-22T08:36:34;1.70;99.90
52471;DHT22;38382;53.160;7.026;2023-11-22T08:39:01;2.10;99.90
52471;DHT22;38382;53.160;7.026;2023-11-22T08:41:27;3.40;99.90
52471;DHT22;38382;53.160;7.026;2023-11-22T08:43:55;3.00;99.90
52471;DHT22;38382;53.160;7.026;2023-11-22T08:46:21;2.20;99.90
52471;DHT22;38382;53.160;7.026;2023-11-22T08:48:47;3.30;99.90
52471;DHT22;38382;53.160;7.026;2023-11-22T08:51:13;2.60;99.90
52471;DHT22;38382;53.160;7.026;2023-11-22T08:53:39;2.40;99.90
52471;DHT22;38382;53.160;7.026;2023-11-22T08:56:05;2.10;99.90
52471;DHT22;38382;53.160;7.026;2023-11-22T08:58:34;1.90;99.90
52471;DHT22;38382;53.160;7.026;2023-11-22T09:01:00;2.00;99.90
52471;DHT22;38382;53.160;7.026;2023-11-22T09:03:25;3.00;99.90
52471;DHT22;38382;53.160;7.026;2023-11-22T09:05:52;2.10;99.90
52471;DHT22;38382;53.160;7.026;2023-11-22T09:08:19;2.00;99.90
52471;DHT22;38382;53.160;7.026;2023-11-22T09:10:46;2.30;99.90
52471;DHT22;38382;53.160;7.026;2023-11-22T09:13:12;2.10;99.90
52471;DHT22;38382;53.160;7.026;2023-11-22T09:15:42;2.10;99.90
52471;DHT22;38382;53.160;7.026;2023-11-22T09:18:10;2.00;99.90
52471;DHT22;38382;53.160;7.026;2023-11-22T09:20:38;3.00;99.90
52471;DHT22;38382;53.160;7.026;2023-11-22T09:23:04;2.10;99.90
52471;DHT22;38382;53.160;7.026;2023-11-22T09:25:30;3.10;99.90
52471;DHT22;38382;53.160;7.026;2023-11-22T09:27:59;3.10;99.90
52471;DHT22;38382;53.160;7.026;2023-11-22T09:30:30;3.30;99.90
52471;DHT22;38382;53.160;7.026;2023-11-22T09:33:06;2.20;99.90
52471;DHT22;38382;53.160;7.026;2023-11-22T09:35:32;3.30;99.90
52471;DHT22;38382;53.160;7.026;2023-11-22T09:38:00;2.30;99.90
52471;DHT22;38382;53.160;7.026;2023-11-22T09:40:27;2.60;99.90
52471;DHT22;38382;53.160;7.026;2023-11-22T09:42:55;2.30;99.90
52471;DHT22;38382;53.160;7.026;2023-11-22T09:45:23;3.10;99.90
52471;DHT22;38382;53.160;7.026;2023-11-22T09:47:50;2.40;99.90
52471;DHT22;38382;53.160;7.026;2023-11-22T09:53:34;2.60;99.90
52471;DHT22;38382;53.160;7.026;2023-11-22T09:56:03;2.60;99.90
52471;DHT22;38382;53.160;7.026;2023-11-22T09:58:33;2.70;99.90
52471;DHT22;38382;53.160;7.026;2023-11-22T10:01:03;4.10;99.90
52471;DHT22;38382;53.160;7.026;2023-11-22T10:03:33;2.80;99.90
52471;DHT22;38382;53.160;7.026;2023-11-22T10:05:59;2.80;99.90
52471;DHT22;38382;53.160;7.026;2023-11-22T10:08:28;3.80;99.90
52471;DHT22;38382;53.160;7.026;2023-11-22T10:10:55;2.90;99.90
52471;DHT22;38382;53.160;7.026;2023-11-22T10:13:22;4.10;99.90
52471;DHT22;38382;53.160;7.026;2023-11-22T10:15:52;3.00;99.90
52471;DHT22;38382;53.160;7.026;2023-11-22T10:18:18;3.90;99.90
52471;DHT22;38382;53.160;7.026;2023-11-22T10:20:46;4.30;99.90
52471;DHT22;38382;53.160;7.026;2023-11-22T10:23:14;3.20;99.90
52471;DHT22;38382;53.160;7.026;2023-11-22T10:25:44;4.30;99.90
52471;DHT22;38382;53.160;7.026;2023-11-22T10:28:11;4.00;99.90
52471;DHT22;38382;53.160;7.026;2023-11-22T10:30:38;3.80;99.90
52471;DHT22;38382;53.160;7.026;2023-11-22T10:33:06;3.90;99.90
52471;DHT22;38382;53.160;7.026;2023-11-22T10:35:31;4.30;99.90
52471;DHT22;38382;53.160;7.026;2023-11-22T10:37:59;3.40;99.90
52471;DHT22;38382;53.160;7.026;2023-11-22T10:40:29;4.00;99.90
52471;DHT22;38382;53.160;7.026;2023-11-22T10:42:56;3.50;99.90
52471;DHT22;38382;53.160;7.026;2023-11-22T10:45:22;3.50;99.90
52471;DHT22;38382;53.160;7.026;2023-11-22T10:47:49;3.60;99.90
52471;DHT22;38382;53.160;7.026;2023-11-22T10:50:17;3.60;99.90
52471;DHT22;38382;53.160;7.026;2023-11-22T10:52:44;3.60;99.90
52471;DHT22;38382;53.160;7.026;2023-11-22T10:55:12;3.70;99.90
52471;DHT22;38382;53.160;7.026;2023-11-22T10:57:45;3.70;99.90
52471;DHT22;38382;53.160;7.026;2023-11-22T11:00:15;3.70;99.90
52471;DHT22;38382;53.160;7.026;2023-11-22T11:02:45;3.70;99.90
52471;DHT22;38382;53.160;7.026;2023-11-22T11:05:16;4.70;99.90
52471;DHT22;38382;53.160;7.026;2023-11-22T11:07:49;3.90;99.90
52471;DHT22;38382;53.160;7.026;2023-11-22T11:10:19;3.90;99.90
52471;DHT22;38382;53.160;7.026;2023-11-22T11:12:46;3.80;99.90
52471;DHT22;38382;53.160;7.026;2023-11-22T11:15:12;4.00;99.90
52471;DHT22;38382;53.160;7.026;2023-11-22T11:17:38;5.10;99.90
52471;DHT22;38382;53.160;7.026;2023-11-22T11:20:05;4.40;99.90
52471;DHT22;38382;53.160;7.026;2023-11-22T11:22:36;4.60;99.90
52471;DHT22;38382;53.160;7.026;2023-11-22T11:25:04;5.00;99.90
52471;DHT22;38382;53.160;7.026;2023-11-22T11:27:35;5.00;99.90
52471;DHT22;38382;53.160;7.026;2023-11-22T11:32:57;5.30;99.90
52471;DHT22;38382;53.160;7.026;2023-11-22T11:35:41;6.50;99.90
52471;DHT22;38382;53.160;7.026;2023-11-22T11:38:07;6.00;99.90
52471;DHT22;38382;53.160;7.026;2023-11-22T11:40:35;6.70;99.90
52471;DHT22;38382;53.160;7.026;2023-11-22T11:43:01;5.80;99.90
52471;DHT22;38382;53.160;7.026;2023-11-22T11:45:27;5.80;99.90
52471;DHT22;38382;53.160;7.026;2023-11-22T11:47:53;5.80;99.90
52471;DHT22;38382;53.160;7.026;2023-11-22T11:50:21;6.20;99.90
52471;DHT22;38382;53.160;7.026;2023-11-22T11:52:47;6.60;99.90
52471;DHT22;38382;53.160;7.026;2023-11-22T11:55:13;6.00;99.90
52471;DHT22;38382;53.160;7.026;2023-11-22T11:57:39;6.10;99.90
52471;DHT22;38382;53.160;7.026;2023-11-22T12:00:08;6.10;99.90
52471;DHT22;38382;53.160;7.026;2023-11-22T12:02:35;6.20;99.90
52471;DHT22;38382;53.160;7.026;2023-11-22T12:05:01;6.30;99.90
52471;DHT22;38382;53.160;7.026;2023-11-22T12:07:34;6.30;99.90
52471;DHT22;38382;53.160;7.026;2023-11-22T12:10:01;6.30;99.90
52471;DHT22;38382;53.160;7.026;2023-11-22T12:12:26;6.30;99.90
52471;DHT22;38382;53.160;7.026;2023-11-22T12:14:55;6.30;99.90
52471;DHT22;38382;53.160;7.026;2023-11-22T12:17:22;6.00;99.90
52471;DHT22;38382;53.160;7.026;2023-11-22T12:19:48;5.90;99.90
52471;DHT22;38382;53.160;7.026;2023-11-22T12:22:15;5.80;99.90
52471;DHT22;38382;53.160;7.026;2023-11-22T12:24:42;5.80;99.90
52471;DHT22;38382;53.160;7.026;2023-11-22T12:27:11;6.30;99.90
52471;DHT22;38382;53.160;7.026;2023-11-22T12:29:37;5.50;99.90
52471;DHT22;38382;53.160;7.026;2023-11-22T12:32:03;5.30;99.90
52471;DHT22;38382;53.160;7.026;2023-11-22T12:34:29;5.30;99.90
52471;DHT22;38382;53.160;7.026;2023-11-22T12:36:56;5.30;99.90
52471;DHT22;38382;53.160;7.026;2023-11-22T12:39:23;5.20;99.90
52471;DHT22;38382;53.160;7.026;2023-11-22T12:41:52;5.20;99.90
52471;DHT22;38382;53.160;7.026;2023-11-22T12:44:19;5.10;99.90
52471;DHT22;38382;53.160;7.026;2023-11-22T12:46:52;5.90;99.90
52471;DHT22;38382;53.160;7.026;2023-11-22T12:49:26;5.10;99.90
52471;DHT22;38382;53.160;7.026;2023-11-22T12:51:54;5.80;99.90
52471;DHT22;38382;53.160;7.026;2023-11-22T12:54:20;4.90;99.90
52471;DHT22;38382;53.160;7.026;2023-11-22T12:56:50;4.90;99.90
52471;DHT22;38382;53.160;7.026;2023-11-22T12:59:16;4.90;99.90
52471;DHT22;38382;53.160;7.026;2023-11-22T13:01:43;5.80;99.90
52471;DHT22;38382;53.160;7.026;2023-11-22T13:04:09;4.80;99.90
52471;DHT22;38382;53.160;7.026;2023-11-22T13:06:35;4.90;99.90
52471;DHT22;38382;53.160;7.026;2023-11-22T13:09:01;4.90;99.90
52471;DHT22;38382;53.160;7.026;2023-11-22T13:11:27;4.80;99.90
52471;DHT22;38382;53.160;7.026;2023-11-22T13:13:52;4.70;99.90
52471;DHT22;38382;53.160;7.026;2023-11-22T13:16:18;4.70;99.90
52471;DHT22;38382;53.160;7.026;2023-11-22T13:18:44;4.70;99.90
52471;DHT22;38382;53.160;7.026;2023-11-22T13:21:10;4.70;99.90
52471;DHT22;38382;53.160;7.026;2023-11-22T13:23:36;4.70;99.90
52471;DHT22;38382;53.160;7.026;2023-11-22T13:26:02;4.70;99.90
52471;DHT22;38382;53.160;7.026;2023-11-22T13:28:28;4.70;99.90
52471;DHT22;38382;53.160;7.026;2023-11-22T13:30:54;5.20;99.90
52471;DHT22;38382;53.160;7.026;2023-11-22T13:33:19;5.80;99.90
52471;DHT22;38382;53.160;7.026;2023-11-22T13:35:46;4.70;99.90
52471;DHT22;38382;53.160;7.026;2023-11-22T13:38:12;4.60;99.90
52471;DHT22;38382;53.160;7.026;2023-11-22T13:40:39;4.60;99.90
52471;DHT22;38382;53.160;7.026;2023-11-22T13:43:06;4.60;99.90
52471;DHT22;38382;53.160;7.026;2023-11-22T13:45:35;5.60;99.90
52471;DHT22;38382;53.160;7.026;2023-11-22T13:48:01;4.60;99.90
52471;DHT22;38382;53.160;7.026;2023-11-22T13:50:32;4.60;99.90
52471;DHT22;38382;53.160;7.026;2023-11-22T13:52:58;4.80;99.90
52471;DHT22;38382;53.160;7.026;2023-11-22T13:55:25;5.40;99.90
52471;DHT22;38382;53.160;7.026;2023-11-22T13:57:58;4.60;99.90
52471;DHT22;38382;53.160;7.026;2023-11-22T14:00:27;4.80;99.90
52471;DHT22;38382;53.160;7.026;2023-11-22T14:02:58;4.60;99.90
52471;DHT22;38382;53.160;7.026;2023-11-22T14:05:31;5.10;99.90
52471;DHT22;38382;53.160;7.026;2023-11-22T14:07:56;4.60;99.90
52471;DHT22;38382;53.160;7.026;2023-11-22T14:10:22;4.50;99.90
52471;DHT22;38382;53.160;7.026;2023-11-22T14:12:49;4.50;99.90
52471;DHT22;38382;53.160;7.026;2023-11-22T14:15:15;4.50;99.90
52471;DHT22;38382;53.160;7.026;2023-11-22T14:17:41;4.50;99.90
52471;DHT22;38382;53.160;7.026;2023-11-22T14:20:08;4.90;99.90
52471;DHT22;38382;53.160;7.026;2023-11-22T14:22:38;4.50;99.90
52471;DHT22;38382;53.160;7.026;2023-11-22T14:25:05;4.80;99.90
52471;DHT22;38382;53.160;7.026;2023-11-22T14:27:43;4.50;99.90
52471;DHT22;38382;53.160;7.026;2023-11-22T14:30:09;4.50;99.90
52471;DHT22;38382;53.160;7.026;2023-11-22T14:32:37;4.50;99.90
52471;DHT22;38382;53.160;7.026;2023-11-22T14:35:04;4.50;99.90
52471;DHT22;38382;53.160;7.026;2023-11-22T14:37:30;4.50;99.90
52471;DHT22;38382;53.160;7.026;2023-11-22T14:39:56;4.50;99.90
52471;DHT22;38382;53.160;7.026;2023-11-22T14:42:23;4.50;99.90
52471;DHT22;38382;53.160;7.026;2023-11-22T14:44:53;4.50;99.90
52471;DHT22;38382;53.160;7.026;2023-11-22T14:47:20;4.50;99.90
52471;DHT22;38382;53.160;7.026;2023-11-22T14:49:50;4.40;99.90
52471;DHT22;38382;53.160;7.026;2023-11-22T14:52:16;4.40;99.90
52471;DHT22;38382;53.160;7.026;2023-11-22T14:54:42;5.30;99.90
52471;DHT22;38382;53.160;7.026;2023-11-22T14:57:10;4.70;99.90
52471;DHT22;38382;53.160;7.026;2023-11-22T14:59:36;4.30;99.90
52471;DHT22;38382;53.160;7.026;2023-11-22T15:02:05;4.30;99.90
52471;DHT22;38382;53.160;7.026;2023-11-22T15:04:34;4.30;99.90
52471;DHT22;38382;53.160;7.026;2023-11-22T15:07:05;4.20;99.90
52471;DHT22;38382;53.160;7.026;2023-11-22T15:09:32;4.20;99.90
52471;DHT22;38382;53.160;7.026;2023-11-22T15:12:01;4.30;99.90
52471;DHT22;38382;53.160;7.026;2023-11-22T15:14:33;4.10;99.90
52471;DHT22;38382;53.160;7.026;2023-11-22T15:17:00;4.10;99.90
52471;DHT22;38382;53.160;7.026;2023-11-22T15:19:33;5.00;99.90
52471;DHT22;38382;53.160;7.026;2023-11-22T15:21:59;4.30;99.90
52471;DHT22;38382;53.160;7.026;2023-11-22T15:24:24;5.00;99.90
52471;DHT22;38382;53.160;7.026;2023-11-22T15:26:52;4.50;99.90
52471;DHT22;38382;53.160;7.026;2023-11-22T15:29:17;4.10;99.90
52471;DHT22;38382;53.160;7.026;2023-11-22T15:31:44;4.90;99.90
52471;DHT22;38382;53.160;7.026;2023-11-22T15:34:10;4.00;99.90
52471;DHT22;38382;53.160;7.026;2023-11-22T15:36:37;4.80;99.90
52471;DHT22;38382;53.160;7.026;2023-11-22T15:39:02;4.00;99.90
52471;DHT22;38382;53.160;7.026;2023-11-22T15:41:28;4.00;99.90
52471;DHT22;38382;53.160;7.026;2023-11-22T15:43:54;4.00;99.90
52471;DHT22;38382;53.160;7.026;2023-11-22T15:46:20;4.00;99.90
52471;DHT22;38382;53.160;7.026;2023-11-22T15:48:50;4.50;99.90